createdAt,value
2023-05-14T00:00:35.189Z,99.99
2023-05-14T00:01:35.173Z,99.99
2023-05-14T00:02:35.235Z,99.99
2023-05-14T00:03:35.192Z,99.99
2023-05-14T00:04:35.207Z,99.99
2023-05-14T00:05:35.152Z,99.99
2023-05-14T00:06:35.142Z,99.99
2023-05-14T00:07:35.116Z,99.99
2023-05-14T00:08:35.106Z,99.99
2023-05-14T00:09:35.074Z,99.99
2023-05-14T00:10:35.104Z,99.99
2023-05-14T00:11:35.069Z,99.99
2023-05-14T00:12:35.032Z,99.99
2023-05-14T00:13:35.063Z,99.99
2023-05-14T00:14:35.027Z,99.99
2023-05-14T00:15:35.108Z,99.99
2023-05-14T00:16:35.150Z,99.99
2023-05-14T00:17:35.327Z,99.99
2023-05-14T00:18:34.994Z,99.99
2023-05-14T00:19:34.958Z,99.99
2023-05-14T00:20:34.982Z,99.99
2023-05-14T00:21:34.935Z,99.99
2023-05-14T00:22:35.230Z,99.99
2023-05-14T00:23:34.957Z,99.99
2023-05-14T00:24:35.172Z,99.99
2023-05-14T00:25:35.259Z,99.99
2023-05-14T00:26:35.145Z,99.99
2023-05-14T00:27:34.897Z,99.99
2023-05-14T00:28:34.882Z,99.99
2023-05-14T00:29:34.897Z,99.99
2023-05-14T00:30:35.128Z,99.99
2023-05-14T00:31:34.851Z,99.99
2023-05-14T00:32:34.845Z,99.99
2023-05-14T00:33:34.801Z,99.99
2023-05-14T00:34:34.804Z,99.99
2023-05-14T00:35:34.774Z,99.99
2023-05-14T00:36:34.767Z,99.99
2023-05-14T00:37:34.776Z,99.99
2023-05-14T00:38:34.739Z,99.99
2023-05-14T00:39:34.770Z,99.99
2023-05-14T00:40:34.759Z,99.99
2023-05-14T00:41:34.727Z,99.99
2023-05-14T00:42:34.707Z,99.99
2023-05-14T00:43:34.745Z,99.99
2023-05-14T00:44:34.690Z,99.99
2023-05-14T00:45:34.664Z,99.99
2023-05-14T00:46:34.962Z,99.99
2023-05-14T00:47:34.667Z,99.99
2023-05-14T00:48:34.648Z,99.99
2023-05-14T00:49:34.620Z,99.99
2023-05-14T00:50:34.608Z,99.99
2023-05-14T00:51:34.592Z,99.99
2023-05-14T00:52:34.620Z,99.99
2023-05-14T00:53:34.623Z,99.99
2023-05-14T00:54:34.601Z,99.99
2023-05-14T00:55:34.557Z,99.99
2023-05-14T00:56:37.468Z,99.99
2023-05-14T00:57:34.847Z,99.99
2023-05-14T00:58:34.552Z,99.99
2023-05-14T00:59:34.522Z,99.99
2023-05-14T01:00:34.526Z,99.99
2023-05-14T01:01:34.744Z,99.99
2023-05-14T01:02:34.577Z,99.99
2023-05-14T01:03:34.589Z,99.99
2023-05-14T01:04:34.435Z,99.99
2023-05-14T01:05:34.729Z,99.99
2023-05-14T01:06:37.189Z,99.99
2023-05-14T01:07:34.423Z,99.99
2023-05-14T01:08:34.396Z,99.99
2023-05-14T01:09:34.425Z,99.99
2023-05-14T01:10:34.375Z,99.99
2023-05-14T01:11:34.388Z,99.99
2023-05-14T01:12:34.486Z,99.99
2023-05-14T01:13:34.333Z,99.99
2023-05-14T01:14:34.631Z,99.99
2023-05-14T01:15:34.352Z,99.99
2023-05-14T01:16:34.426Z,99.99
2023-05-14T01:17:34.324Z,99.99
2023-05-14T01:18:34.322Z,99.99
2023-05-14T01:19:34.288Z,99.99
2023-05-14T01:20:34.301Z,99.99
2023-05-14T01:21:34.328Z,99.99
2023-05-14T01:22:34.260Z,99.99
2023-05-14T01:23:41.510Z,99.99
2023-05-14T01:24:43.116Z,99.99
2023-05-14T01:25:42.270Z,99.99
2023-05-14T01:26:41.488Z,99.99
2023-05-14T01:27:42.058Z,99.99
2023-05-14T01:28:41.539Z,99.99
2023-05-14T01:29:44.467Z,99.99
2023-05-14T01:30:34.172Z,99.99
2023-05-14T01:31:34.170Z,99.99
2023-05-14T01:32:34.174Z,99.99
2023-05-14T01:33:34.111Z,99.99
2023-05-14T01:34:34.115Z,99.99
2023-05-14T01:35:34.136Z,99.99
2023-05-14T01:36:34.141Z,99.99
2023-05-14T01:37:34.071Z,99.99
2023-05-14T01:38:34.247Z,99.99
2023-05-14T01:39:34.074Z,99.99
2023-05-14T01:40:34.088Z,99.99
2023-05-14T01:41:34.020Z,99.99
2023-05-14T01:42:34.008Z,99.99
2023-05-14T01:43:34.367Z,99.99
2023-05-14T01:44:34.003Z,99.99
2023-05-14T01:45:33.991Z,99.99
2023-05-14T01:46:34.227Z,99.99
2023-05-14T01:47:34.012Z,99.99
2023-05-14T01:48:34.332Z,99.99
2023-05-14T01:49:33.940Z,99.99
2023-05-14T01:50:33.930Z,99.99
2023-05-14T01:51:33.939Z,99.99
2023-05-14T01:52:33.905Z,99.99
2023-05-14T01:53:33.893Z,99.99
2023-05-14T01:54:33.901Z,99.99
2023-05-14T01:55:33.851Z,99.99
2023-05-14T01:56:33.887Z,99.99
2023-05-14T01:57:33.866Z,99.99
2023-05-14T01:58:33.858Z,99.99
2023-05-14T01:59:33.852Z,99.99
2023-05-14T02:00:33.828Z,99.99
2023-05-14T02:01:33.965Z,99.99
2023-05-14T02:02:33.888Z,99.99
2023-05-14T02:03:33.799Z,99.99
2023-05-14T02:04:33.789Z,99.99
2023-05-14T02:05:33.756Z,99.99
2023-05-14T02:06:33.735Z,99.99
2023-05-14T02:07:34.087Z,99.99
2023-05-14T02:08:33.732Z,99.99
2023-05-14T02:09:33.708Z,99.99
2023-05-14T02:10:33.748Z,99.99
2023-05-14T02:11:33.743Z,99.99
2023-05-14T02:12:33.689Z,99.99
2023-05-14T02:13:33.677Z,99.99
2023-05-14T02:14:33.667Z,99.99
2023-05-14T02:15:33.650Z,99.99
2023-05-14T02:16:33.850Z,99.99
2023-05-14T02:17:33.691Z,99.99
2023-05-14T02:18:33.654Z,99.99
2023-05-14T02:19:33.602Z,99.99
2023-05-14T02:20:33.613Z,99.99
2023-05-14T02:21:33.583Z,99.99
2023-05-14T02:22:33.574Z,99.99
2023-05-14T02:23:41.096Z,99.99
2023-05-14T02:24:34.551Z,99.99
2023-05-14T02:25:33.549Z,99.99
2023-05-14T02:26:33.538Z,99.99
2023-05-14T02:27:33.536Z,99.99
2023-05-14T02:28:33.514Z,99.99
2023-05-14T02:29:33.484Z,99.99
2023-05-14T02:30:33.535Z,99.99
2023-05-14T02:31:33.534Z,99.99
2023-05-14T02:32:33.547Z,99.99
2023-05-14T02:33:33.543Z,99.99
2023-05-14T02:34:33.440Z,99.99
2023-05-14T02:35:33.458Z,99.99
2023-05-14T02:36:33.489Z,99.99
2023-05-14T02:37:33.416Z,99.99
2023-05-14T02:38:33.402Z,99.99
2023-05-14T02:39:33.426Z,99.99
2023-05-14T02:40:33.402Z,99.99
2023-05-14T02:41:33.376Z,99.99
2023-05-14T02:42:33.375Z,99.99
2023-05-14T02:43:33.368Z,99.99
2023-05-14T02:44:33.341Z,99.99
2023-05-14T02:45:33.331Z,99.99
2023-05-14T02:46:33.383Z,99.99
2023-05-14T02:47:34.739Z,99.99
2023-05-14T02:48:33.321Z,99.99
2023-05-14T02:49:33.300Z,99.99
2023-05-14T02:50:33.578Z,99.99
2023-05-14T02:51:33.267Z,99.99
2023-05-14T02:52:33.235Z,99.99
2023-05-14T02:53:33.255Z,99.99
2023-05-14T02:54:33.562Z,99.99
2023-05-14T02:55:33.207Z,99.99
2023-05-14T02:56:33.195Z,99.99
2023-05-14T02:57:33.214Z,99.99
2023-05-14T02:58:33.190Z,99.99
2023-05-14T02:59:33.196Z,99.99
2023-05-14T03:00:33.207Z,99.99
2023-05-14T03:01:33.167Z,99.99
2023-05-14T03:02:33.234Z,99.99
2023-05-14T03:03:33.221Z,99.99
2023-05-14T03:04:33.117Z,99.99
2023-05-14T03:05:34.856Z,99.99
2023-05-14T03:06:33.083Z,99.99
2023-05-14T03:07:33.102Z,99.99
2023-05-14T03:08:33.086Z,99.99
2023-05-14T03:09:33.067Z,99.99
2023-05-14T03:10:33.078Z,99.99
2023-05-14T03:11:33.031Z,99.99
2023-05-14T03:12:33.038Z,99.99
2023-05-14T03:13:33.073Z,99.99
2023-05-14T03:14:33.024Z,99.99
2023-05-14T03:15:32.979Z,99.99
2023-05-14T03:16:33.372Z,99.99
2023-05-14T03:17:33.033Z,99.99
2023-05-14T03:18:40.889Z,99.99
2023-05-14T03:19:40.025Z,99.99
2023-05-14T03:20:32.938Z,99.99
2023-05-14T03:21:40.021Z,99.99
2023-05-14T03:22:33.248Z,99.99
2023-05-14T03:23:32.934Z,99.99
2023-05-14T03:24:32.918Z,99.99
2023-05-14T03:25:32.874Z,99.99
2023-05-14T03:26:32.868Z,99.99
2023-05-14T03:27:32.886Z,99.99
2023-05-14T03:28:32.837Z,99.99
2023-05-14T03:29:32.852Z,99.99
2023-05-14T03:30:32.892Z,99.99
2023-05-14T03:31:33.167Z,99.99
2023-05-14T03:32:32.818Z,99.99
2023-05-14T03:33:32.791Z,99.99
2023-05-14T03:34:32.775Z,99.99
2023-05-14T03:35:32.802Z,99.99
2023-05-14T03:36:32.793Z,99.99
2023-05-14T03:37:32.751Z,99.99
2023-05-14T03:38:32.750Z,99.99
2023-05-14T03:39:33.719Z,99.99
2023-05-14T03:40:32.754Z,99.99
2023-05-14T03:41:32.736Z,99.99
2023-05-14T03:42:33.650Z,99.99
2023-05-14T03:43:32.716Z,99.99
2023-05-14T03:44:32.684Z,99.99
2023-05-14T03:45:32.685Z,99.99
2023-05-14T03:46:35.425Z,99.99
2023-05-14T03:47:32.722Z,99.99
2023-05-14T03:48:32.684Z,99.99
2023-05-14T03:49:32.616Z,99.99
2023-05-14T03:50:32.666Z,99.99
2023-05-14T03:51:32.610Z,99.99
2023-05-14T03:52:32.587Z,99.99
2023-05-14T03:53:32.584Z,99.99
2023-05-14T03:54:32.657Z,99.99
2023-05-14T03:55:32.569Z,99.99
2023-05-14T03:56:32.550Z,99.99
2023-05-14T03:57:32.544Z,99.99
2023-05-14T03:58:32.812Z,99.99
2023-05-14T03:59:32.576Z,99.99
2023-05-14T04:00:32.832Z,99.99
2023-05-14T04:01:32.464Z,99.99
2023-05-14T04:02:34.315Z,99.99
2023-05-14T04:03:32.721Z,99.99
2023-05-14T04:04:32.549Z,99.99
2023-05-14T04:05:32.438Z,99.99
2023-05-14T04:06:32.427Z,99.99
2023-05-14T04:07:32.425Z,99.99
2023-05-14T04:08:32.750Z,99.99
2023-05-14T04:09:32.401Z,99.99
2023-05-14T04:10:32.418Z,99.99
2023-05-14T04:11:32.387Z,99.99
2023-05-14T04:12:32.698Z,99.99
2023-05-14T04:13:32.400Z,99.99
2023-05-14T04:14:32.632Z,99.99
2023-05-14T04:15:32.338Z,99.99
2023-05-14T04:16:32.698Z,99.99
2023-05-14T04:17:36.379Z,99.99
2023-05-14T04:18:32.371Z,99.99
2023-05-14T04:19:35.089Z,99.99
2023-05-14T04:20:32.263Z,99.99
2023-05-14T04:21:32.278Z,99.99
2023-05-14T04:22:32.264Z,99.99
2023-05-14T04:23:32.271Z,99.99
2023-05-14T04:24:32.233Z,99.99
2023-05-14T04:25:32.213Z,99.99
2023-05-14T04:26:32.234Z,99.99
2023-05-14T04:27:32.208Z,99.99
2023-05-14T04:28:32.190Z,99.99
2023-05-14T04:29:32.183Z,99.99
2023-05-14T04:30:32.175Z,99.99
2023-05-14T04:31:32.164Z,99.99
2023-05-14T04:32:32.185Z,99.99
2023-05-14T04:33:32.148Z,99.99
2023-05-14T04:34:32.213Z,99.99
2023-05-14T04:35:32.103Z,99.99
2023-05-14T04:36:32.090Z,99.99
2023-05-14T04:37:32.101Z,99.99
2023-05-14T04:38:32.063Z,99.99
2023-05-14T04:39:32.053Z,99.99
2023-05-14T04:40:32.395Z,99.99
2023-05-14T04:41:32.048Z,99.99
2023-05-14T04:42:32.009Z,99.99
2023-05-14T04:43:32.015Z,99.99
2023-05-14T04:44:32.009Z,99.99
2023-05-14T04:45:33.998Z,99.99
2023-05-14T04:46:32.068Z,99.99
2023-05-14T04:47:31.997Z,99.99
2023-05-14T04:48:32.314Z,99.99
2023-05-14T04:49:31.941Z,99.99
2023-05-14T04:50:31.970Z,99.99
2023-05-14T04:51:31.941Z,99.99
2023-05-14T04:52:31.897Z,99.99
2023-05-14T04:53:31.924Z,99.99
2023-05-14T04:54:31.926Z,99.99
2023-05-14T04:55:31.877Z,99.99
2023-05-14T04:56:31.876Z,99.99
2023-05-14T04:57:31.865Z,99.99
2023-05-14T04:58:34.493Z,99.99
2023-05-14T04:59:31.935Z,99.99
2023-05-14T05:00:31.894Z,99.99
2023-05-14T05:01:31.856Z,99.99
2023-05-14T05:02:31.815Z,99.99
2023-05-14T05:03:31.808Z,99.99
2023-05-14T05:04:31.797Z,99.99
2023-05-14T05:05:31.782Z,99.99
2023-05-14T05:06:31.784Z,99.99
2023-05-14T05:07:32.055Z,99.99
2023-05-14T05:08:40.032Z,99.99
2023-05-14T05:09:39.751Z,99.99
2023-05-14T05:10:39.999Z,99.99
2023-05-14T05:11:40.079Z,99.99
2023-05-14T05:12:39.520Z,99.99
2023-05-14T05:13:39.040Z,99.99
2023-05-14T05:14:31.665Z,99.99
2023-05-14T05:15:31.681Z,99.99
2023-05-14T05:16:31.769Z,99.99
2023-05-14T05:17:31.646Z,99.99
2023-05-14T05:18:31.703Z,99.99
2023-05-14T05:19:42.382Z,99.99
2023-05-14T05:20:32.630Z,99.99
2023-05-14T05:21:31.610Z,99.99
2023-05-14T05:22:31.582Z,99.99
2023-05-14T05:23:31.587Z,99.99
2023-05-14T05:24:31.565Z,99.99
2023-05-14T05:25:33.366Z,99.99
2023-05-14T05:26:31.517Z,99.99
2023-05-14T05:27:31.556Z,99.99
2023-05-14T05:28:31.510Z,99.99
2023-05-14T05:29:31.502Z,99.99
2023-05-14T05:30:31.507Z,99.99
2023-05-14T05:31:31.518Z,99.99
2023-05-14T05:32:31.589Z,99.99
2023-05-14T05:33:31.452Z,99.99
2023-05-14T05:34:31.484Z,99.99
2023-05-14T05:35:31.432Z,99.99
2023-05-14T05:36:31.467Z,99.99
2023-05-14T05:37:31.398Z,99.99
2023-05-14T05:38:31.398Z,99.99
2023-05-14T05:39:31.387Z,99.99
2023-05-14T05:40:31.359Z,99.99
2023-05-14T05:41:31.410Z,99.99
2023-05-14T05:42:31.360Z,99.99
2023-05-14T05:43:31.389Z,99.99
2023-05-14T05:44:31.337Z,99.99
2023-05-14T05:45:31.347Z,99.99
2023-05-14T05:46:31.340Z,99.99
2023-05-14T05:47:31.364Z,99.99
2023-05-14T05:48:31.324Z,99.99
2023-05-14T05:49:31.280Z,99.99
2023-05-14T05:50:31.264Z,99.99
2023-05-14T05:51:31.237Z,99.99
2023-05-14T05:52:31.248Z,99.99
2023-05-14T05:53:31.221Z,99.99
2023-05-14T05:54:31.214Z,99.99
2023-05-14T05:55:31.239Z,99.99
2023-05-14T05:56:31.182Z,99.99
2023-05-14T05:57:31.530Z,99.99
2023-05-14T05:58:31.171Z,99.99
2023-05-14T05:59:31.172Z,99.99
2023-05-14T06:00:31.183Z,99.99
2023-05-14T06:01:31.140Z,99.99
2023-05-14T06:02:31.492Z,99.99
2023-05-14T06:03:31.118Z,99.99
2023-05-14T06:04:31.105Z,99.99
2023-05-14T06:05:31.138Z,99.99
2023-05-14T06:06:31.117Z,99.99
2023-05-14T06:07:33.848Z,99.99
2023-05-14T06:08:31.053Z,99.99
2023-05-14T06:09:31.063Z,99.99
2023-05-14T06:10:31.040Z,99.99
2023-05-14T06:11:31.064Z,99.99
2023-05-14T06:12:31.004Z,99.99
2023-05-14T06:13:31.010Z,99.99
2023-05-14T06:14:31.022Z,99.99
2023-05-14T06:15:30.990Z,99.99
2023-05-14T06:16:31.002Z,99.99
2023-05-14T06:17:33.771Z,99.99
2023-05-14T06:18:30.978Z,99.99
2023-05-14T06:19:30.933Z,99.99
2023-05-14T06:20:30.924Z,99.99
2023-05-14T06:21:31.271Z,99.99
2023-05-14T06:22:30.896Z,99.99
2023-05-14T06:23:30.918Z,99.99
2023-05-14T06:24:30.877Z,99.99
2023-05-14T06:25:30.884Z,99.99
2023-05-14T06:26:30.850Z,99.99
2023-05-14T06:27:30.866Z,99.99
2023-05-14T06:28:30.822Z,99.99
2023-05-14T06:29:30.815Z,99.99
2023-05-14T06:30:30.868Z,99.99
2023-05-14T06:31:30.978Z,99.99
2023-05-14T06:32:30.837Z,99.99
2023-05-14T06:33:30.893Z,99.99
2023-05-14T06:34:30.782Z,99.99
2023-05-14T06:35:30.739Z,99.99
2023-05-14T06:36:31.053Z,99.99
2023-05-14T06:37:30.774Z,99.99
2023-05-14T06:38:30.713Z,99.99
2023-05-14T06:39:30.737Z,99.99
2023-05-14T06:40:30.687Z,99.99
2023-05-14T06:41:30.938Z,99.99
2023-05-14T06:42:30.677Z,99.95
2023-05-14T06:43:30.653Z,99.54
2023-05-14T06:44:31.436Z,99.08
2023-05-14T06:45:32.437Z,98.88
2023-05-14T06:46:30.621Z,98.68
2023-05-14T06:47:30.622Z,98.47
2023-05-14T06:48:30.651Z,98.16
2023-05-14T06:49:32.457Z,98.02
2023-05-14T06:50:30.864Z,97.81
2023-05-14T06:51:31.426Z,97.50
2023-05-14T06:52:30.565Z,97.20
2023-05-14T06:53:30.960Z,96.28
2023-05-14T06:54:30.529Z,95.87
2023-05-14T06:55:30.503Z,95.57
2023-05-14T06:56:30.556Z,95.57
2023-05-14T06:57:30.486Z,95.67
2023-05-14T06:58:30.537Z,95.73
2023-05-14T06:59:30.837Z,95.83
2023-05-14T07:00:30.497Z,95.93
2023-05-14T07:01:41.265Z,96.03
2023-05-14T07:02:41.443Z,96.14
2023-05-14T07:03:41.692Z,95.93
2023-05-14T07:04:40.833Z,95.52
2023-05-14T07:05:45.127Z,95.32
2023-05-14T07:06:31.444Z,95.16
2023-05-14T07:07:31.289Z,95.12
2023-05-14T07:08:31.343Z,95.36
2023-05-14T07:09:30.739Z,95.77
2023-05-14T07:10:30.356Z,96.34
2023-05-14T07:11:30.340Z,96.64
2023-05-14T07:12:33.235Z,97.05
2023-05-14T07:13:31.364Z,97.25
2023-05-14T07:14:34.490Z,97.16
2023-05-14T07:15:32.128Z,96.95
2023-05-14T07:16:30.430Z,96.64
2023-05-14T07:17:30.401Z,96.23
2023-05-14T07:18:32.291Z,96.44
2023-05-14T07:19:31.340Z,96.30
2023-05-14T07:20:31.481Z,95.89
2023-05-14T07:21:32.470Z,95.68
2023-05-14T07:22:31.307Z,95.68
2023-05-14T07:23:32.220Z,95.33
2023-05-14T07:24:30.607Z,95.43
2023-05-14T07:25:30.181Z,95.33
2023-05-14T07:26:32.944Z,94.52
2023-05-14T07:27:33.506Z,94.11
2023-05-14T07:28:31.064Z,93.90
2023-05-14T07:29:31.970Z,93.76
2023-05-14T07:30:30.187Z,93.66
2023-05-14T07:31:30.150Z,93.55
2023-05-14T07:32:30.135Z,93.25
2023-05-14T07:33:31.039Z,93.05
2023-05-14T07:34:30.092Z,92.80
2023-05-14T07:35:34.388Z,92.80
2023-05-14T07:36:32.909Z,92.70
2023-05-14T07:37:33.612Z,92.19
2023-05-14T07:38:32.789Z,91.88
2023-05-14T07:39:34.194Z,91.84
2023-05-14T07:40:31.429Z,91.74
2023-05-14T07:41:30.825Z,91.53
2023-05-14T07:42:36.583Z,91.23
2023-05-14T07:43:30.046Z,90.72
2023-05-14T07:44:32.483Z,90.37
2023-05-14T07:45:30.386Z,90.48
2023-05-14T07:46:31.767Z,89.97
2023-05-14T07:47:32.891Z,89.76
2023-05-14T07:48:32.968Z,90.27
2023-05-14T07:49:32.675Z,90.37
2023-05-14T07:50:30.294Z,90.37
2023-05-14T07:51:29.947Z,89.92
2023-05-14T07:52:29.881Z,89.31
2023-05-14T07:53:32.691Z,88.60
2023-05-14T07:54:32.742Z,88.40
2023-05-14T07:55:32.024Z,88.60
2023-05-14T07:56:34.285Z,88.71
2023-05-14T07:57:35.009Z,88.26
2023-05-14T07:58:30.244Z,87.85
2023-05-14T07:59:30.539Z,87.75
2023-05-14T08:00:29.776Z,87.71
2023-05-14T08:01:29.790Z,88.01
2023-05-14T08:02:30.018Z,87.81
2023-05-14T08:03:29.868Z,87.00
2023-05-14T08:04:29.873Z,86.65
2023-05-14T08:05:29.745Z,86.25
2023-05-14T08:06:29.718Z,86.05
2023-05-14T08:07:29.735Z,85.74
2023-05-14T08:08:29.721Z,85.03
2023-05-14T08:09:29.674Z,85.24
2023-05-14T08:10:29.853Z,85.30
2023-05-14T08:11:29.661Z,85.39
2023-05-14T08:12:29.665Z,85.50
2023-05-14T08:13:29.650Z,84.34
2023-05-14T08:14:29.659Z,84.44
2023-05-14T08:15:29.656Z,83.53
2023-05-14T08:16:29.697Z,83.63
2023-05-14T08:17:29.642Z,83.43
2023-05-14T08:18:29.910Z,83.43
2023-05-14T08:19:29.607Z,83.59
2023-05-14T08:20:29.613Z,83.59
2023-05-14T08:21:29.574Z,83.39
2023-05-14T08:22:29.615Z,83.29
2023-05-14T08:23:29.574Z,82.38
2023-05-14T08:24:29.576Z,82.24
2023-05-14T08:25:29.522Z,82.44
2023-05-14T08:26:29.493Z,82.14
2023-05-14T08:27:29.478Z,81.93
2023-05-14T08:28:29.471Z,81.43
2023-05-14T08:29:29.499Z,80.62
2023-05-14T08:30:29.447Z,80.52
2023-05-14T08:31:29.500Z,80.31
2023-05-14T08:32:29.449Z,80.68
2023-05-14T08:33:29.462Z,80.38
2023-05-14T08:34:29.399Z,79.87
2023-05-14T08:35:30.148Z,80.27
2023-05-14T08:36:29.408Z,79.36
2023-05-14T08:37:29.363Z,79.06
2023-05-14T08:38:29.386Z,78.55
2023-05-14T08:39:29.345Z,78.25
2023-05-14T08:40:32.211Z,78.82
2023-05-14T08:41:31.217Z,78.72
2023-05-14T08:42:29.377Z,78.92
2023-05-14T08:43:29.349Z,78.21
2023-05-14T08:44:29.277Z,77.37
2023-05-14T08:45:29.300Z,77.67
2023-05-14T08:46:29.265Z,77.26
2023-05-14T08:47:29.267Z,76.66
2023-05-14T08:48:29.659Z,75.95
2023-05-14T08:49:29.233Z,76.15
2023-05-14T08:50:29.712Z,76.42
2023-05-14T08:51:29.241Z,75.61
2023-05-14T08:52:29.187Z,75.21
2023-05-14T08:53:36.699Z,75.31
2023-05-14T08:54:36.512Z,75.41
2023-05-14T08:55:37.191Z,75.51
2023-05-14T08:56:36.163Z,75.71
2023-05-14T08:57:36.181Z,74.90
2023-05-14T08:58:37.514Z,74.90
2023-05-14T08:59:29.143Z,75.07
2023-05-14T09:00:36.131Z,75.27
2023-05-14T09:01:37.190Z,74.97
2023-05-14T09:02:37.990Z,73.55
2023-05-14T09:03:29.123Z,73.55
2023-05-14T09:04:29.105Z,73.35
2023-05-14T09:05:29.062Z,73.96
2023-05-14T09:06:29.053Z,72.75
2023-05-14T09:07:29.028Z,73.05
2023-05-14T09:08:29.063Z,73.15
2023-05-14T09:09:29.005Z,73.25
2023-05-14T09:10:29.017Z,73.62
2023-05-14T09:11:29.003Z,73.22
2023-05-14T09:12:28.953Z,73.72
2023-05-14T09:13:28.933Z,73.72
2023-05-14T09:14:28.962Z,74.40
2023-05-14T09:15:29.060Z,71.47
2023-05-14T09:16:29.008Z,71.57
2023-05-14T09:17:28.946Z,71.47
2023-05-14T09:18:28.945Z,71.47
2023-05-14T09:19:28.863Z,72.31
2023-05-14T09:20:29.131Z,72.38
2023-05-14T09:21:30.186Z,72.68
2023-05-14T09:22:29.138Z,73.38
2023-05-14T09:23:28.841Z,72.75
2023-05-14T09:24:28.832Z,72.68
2023-05-14T09:25:28.812Z,72.95
2023-05-14T09:26:28.847Z,72.54
2023-05-14T09:27:29.803Z,71.44
2023-05-14T09:28:28.808Z,70.42
2023-05-14T09:29:28.796Z,71.00
2023-05-14T09:30:31.552Z,72.14
2023-05-14T09:31:28.771Z,70.83
2023-05-14T09:32:28.766Z,71.44
2023-05-14T09:33:28.743Z,71.03
2023-05-14T09:34:28.712Z,71.17
2023-05-14T09:35:28.698Z,71.53
2023-05-14T09:36:28.721Z,71.53
2023-05-14T09:37:28.708Z,71.44
2023-05-14T09:38:28.778Z,70.62
2023-05-14T09:39:28.688Z,70.02
2023-05-14T09:40:29.193Z,70.42
2023-05-14T09:41:28.635Z,71.13
2023-05-14T09:42:28.619Z,71.20
2023-05-14T09:43:28.660Z,69.68
2023-05-14T09:44:31.969Z,70.09
2023-05-14T09:45:33.172Z,69.89
2023-05-14T09:46:38.995Z,70.09
2023-05-14T09:47:29.227Z,70.15
2023-05-14T09:48:29.322Z,69.05
2023-05-14T09:49:28.552Z,69.05
2023-05-14T09:50:28.582Z,69.21
2023-05-14T09:51:28.520Z,68.61
2023-05-14T09:52:28.796Z,67.91
2023-05-14T09:53:28.508Z,67.80
2023-05-14T09:54:30.361Z,67.54
2023-05-14T09:55:28.532Z,68.24
2023-05-14T09:56:28.479Z,69.95
2023-05-14T09:57:28.494Z,70.76
2023-05-14T09:58:28.765Z,68.65
2023-05-14T09:59:28.460Z,69.45
2023-05-14T10:00:28.454Z,70.46
2023-05-14T10:01:32.748Z,69.72
2023-05-14T10:02:28.937Z,69.12
2023-05-14T10:03:28.415Z,68.81
2023-05-14T10:04:28.504Z,68.78
2023-05-14T10:05:28.714Z,66.67
2023-05-14T10:06:28.368Z,66.06
2023-05-14T10:07:28.379Z,66.97
2023-05-14T10:08:28.424Z,67.03
2023-05-14T10:09:29.348Z,65.86
2023-05-14T10:10:28.731Z,66.27
2023-05-14T10:11:29.136Z,66.36
2023-05-14T10:12:28.326Z,66.77
2023-05-14T10:13:29.478Z,66.94
2023-05-14T10:14:28.298Z,66.94
2023-05-14T10:15:29.870Z,66.63
2023-05-14T10:16:28.335Z,66.23
2023-05-14T10:17:28.261Z,66.83
2023-05-14T10:18:28.310Z,66.53
2023-05-14T10:19:28.431Z,66.40
2023-05-14T10:20:29.054Z,65.80
2023-05-14T10:21:28.560Z,64.69
2023-05-14T10:22:28.187Z,65.56
2023-05-14T10:23:28.176Z,64.76
2023-05-14T10:24:28.484Z,65.06
2023-05-14T10:25:28.209Z,64.46
2023-05-14T10:26:29.286Z,64.56
2023-05-14T10:27:28.149Z,64.26
2023-05-14T10:28:29.075Z,65.53
2023-05-14T10:29:29.549Z,63.42
2023-05-14T10:30:28.107Z,63.82
2023-05-14T10:31:29.193Z,63.82
2023-05-14T10:32:28.155Z,63.62
2023-05-14T10:33:28.078Z,62.62
2023-05-14T10:34:28.072Z,62.22
2023-05-14T10:35:29.564Z,62.92
2023-05-14T10:36:29.502Z,64.23
2023-05-14T10:37:28.022Z,64.43
2023-05-14T10:38:28.359Z,62.89
2023-05-14T10:39:28.004Z,62.42
2023-05-14T10:40:27.995Z,63.35
2023-05-14T10:41:27.974Z,64.96
2023-05-14T10:42:28.035Z,67.44
2023-05-14T10:43:27.969Z,62.69
2023-05-14T10:44:28.474Z,61.96
2023-05-14T10:45:28.536Z,62.16
2023-05-14T10:46:38.778Z,61.86
2023-05-14T10:47:36.965Z,63.17
2023-05-14T10:48:36.880Z,64.27
2023-05-14T10:49:43.627Z,62.23
2023-05-14T10:50:30.054Z,63.33
2023-05-14T10:51:29.350Z,63.60
2023-05-14T10:52:29.185Z,61.80
2023-05-14T10:53:29.319Z,60.39
2023-05-14T10:54:29.274Z,59.62
2023-05-14T10:55:33.131Z,61.02
2023-05-14T10:56:29.522Z,62.03
2023-05-14T10:57:28.820Z,61.72
2023-05-14T10:58:28.934Z,60.52
2023-05-14T10:59:29.425Z,61.22
2023-05-14T11:00:29.378Z,60.72
2023-05-14T11:01:29.002Z,60.75
2023-05-14T11:02:28.816Z,61.15
2023-05-14T11:03:29.570Z,61.83
2023-05-14T11:04:28.991Z,60.93
2023-05-14T11:05:28.626Z,61.00
2023-05-14T11:06:28.848Z,59.79
2023-05-14T11:07:29.599Z,60.77
2023-05-14T11:08:29.521Z,60.33
2023-05-14T11:09:28.811Z,60.64
2023-05-14T11:10:29.183Z,58.91
2023-05-14T11:11:28.699Z,59.28
2023-05-14T11:12:29.144Z,58.68
2023-05-14T11:13:29.616Z,57.80
2023-05-14T11:14:28.975Z,58.40
2023-05-14T11:16:39.667Z,58.48
2023-05-14T11:17:40.235Z,58.30
2023-05-14T11:18:39.763Z,58.07
2023-05-14T11:19:39.744Z,57.40
2023-05-14T11:20:40.257Z,58.61
2023-05-14T11:21:39.855Z,59.18
2023-05-14T11:22:39.574Z,58.07
2023-05-14T11:23:39.625Z,57.28
2023-05-14T11:24:39.563Z,57.17
2023-05-14T11:25:39.534Z,56.60
2023-05-14T11:26:40.071Z,56.70
2023-05-14T11:27:39.624Z,57.43
2023-05-14T11:28:39.878Z,58.33
2023-05-14T11:29:39.466Z,58.91
2023-05-14T11:30:39.627Z,58.40
2023-05-14T11:31:39.922Z,58.11
2023-05-14T11:32:39.584Z,58.61
2023-05-14T11:33:39.346Z,57.80
2023-05-14T11:34:39.533Z,58.40
2023-05-14T11:35:39.785Z,57.40
2023-05-14T11:36:39.694Z,58.30
2023-05-14T11:37:42.203Z,57.40
2023-05-14T11:38:39.586Z,57.80
2023-05-14T11:39:40.805Z,58.63
2023-05-14T11:40:41.099Z,59.44
2023-05-14T11:41:39.420Z,59.23
2023-05-14T11:42:39.457Z,59.46
2023-05-14T11:43:39.334Z,59.06
2023-05-14T11:44:39.778Z,58.86
2023-05-14T11:45:39.950Z,59.86
2023-05-14T11:46:39.597Z,59.77
2023-05-14T11:47:40.749Z,59.44
2023-05-14T11:48:39.345Z,58.83
2023-05-14T11:49:39.782Z,58.94
2023-05-14T11:50:39.402Z,60.24
2023-05-14T11:51:40.855Z,59.81
2023-05-14T11:52:39.319Z,59.00
2023-05-14T11:53:40.549Z,59.33
2023-05-14T11:54:39.676Z,60.27
2023-05-14T11:55:39.315Z,58.76
2023-05-14T11:56:39.297Z,59.66
2023-05-14T11:57:39.197Z,60.77
2023-05-14T11:58:39.593Z,60.74
2023-05-14T11:59:39.828Z,58.61
2023-05-14T12:00:39.060Z,56.10
2023-05-14T12:01:39.874Z,56.60
2023-05-14T12:02:39.077Z,56.80
2023-05-14T12:03:39.228Z,57.43
2023-05-14T12:04:39.314Z,56.43
2023-05-14T12:05:39.445Z,57.33
2023-05-14T12:06:41.278Z,57.63
2023-05-14T12:07:39.252Z,55.95
2023-05-14T12:08:42.448Z,55.55
2023-05-14T12:09:39.095Z,56.33
2023-05-14T12:10:40.903Z,56.33
2023-05-14T12:11:39.971Z,56.83
2023-05-14T12:12:38.780Z,59.11
2023-05-14T12:13:41.124Z,56.80
2023-05-14T12:14:39.161Z,57.10
2023-05-14T12:15:39.019Z,55.90
2023-05-14T12:16:41.544Z,55.73
2023-05-14T12:17:39.377Z,53.52
2023-05-14T12:18:40.684Z,56.63
2023-05-14T12:19:38.797Z,54.62
2023-05-14T12:20:39.145Z,54.12
2023-05-14T12:21:38.907Z,54.50
2023-05-14T12:22:39.174Z,54.90
2023-05-14T12:23:38.951Z,54.87
2023-05-14T12:24:38.733Z,55.37
2023-05-14T12:25:37.958Z,55.98
2023-05-14T12:26:39.677Z,55.74
2023-05-14T12:27:38.865Z,53.24
2023-05-14T12:28:38.829Z,53.57
2023-05-14T12:29:39.293Z,53.37
2023-05-14T12:30:38.883Z,53.27
2023-05-14T12:31:39.138Z,53.57
2023-05-14T12:32:38.958Z,53.47
2023-05-14T12:33:39.890Z,53.30
2023-05-14T12:34:38.686Z,53.59
2023-05-14T12:35:38.733Z,54.70
2023-05-14T12:36:47.476Z,54.27
2023-05-14T12:37:45.876Z,55.20
2023-05-14T12:38:46.382Z,53.09
2023-05-14T12:39:47.126Z,53.69
2023-05-14T12:40:45.723Z,53.67
2023-05-14T12:41:46.837Z,53.87
2023-05-14T12:42:38.863Z,53.97
2023-05-14T12:43:38.697Z,53.47
2023-05-14T12:44:39.028Z,53.27
2023-05-14T12:45:39.053Z,53.44
2023-05-14T12:46:38.496Z,54.12
2023-05-14T12:47:39.005Z,53.72
2023-05-14T12:48:38.657Z,53.32
2023-05-14T12:49:38.433Z,52.72
2023-05-14T12:50:39.964Z,52.62
2023-05-14T12:51:38.460Z,52.74
2023-05-14T12:52:39.943Z,52.94
2023-05-14T12:53:39.145Z,54.24